Time;durP1;ratioP1;P1;durP2;ratioP2;P2;SDS_P1;SDS_P2;PMS_P1;PMS_P2;Temp;Humidity;BMP_temperature;BMP_pressure;BME280_temperature;BME280_humidity;BME280_pressure;Samples;Min_cycle;Max_cycle;Signal;HPM_P1;HPM_P2
2022/10/27 00:02:21;;;;;;;12.30;2.78;;;25.50;99.90;;;;;;5028960;28;20500;-50
2022/10/27 00:04:47;;;;;;;9.68;3.08;;;25.50;99.90;;;;;;5031833;28;20026;-52
2022/10/27 00:07:12;;;;;;;15.13;2.88;;;25.50;99.90;;;;;;5006744;28;20109;-49
2022/10/27 00:09:38;;;;;;;21.95;2.63;;;25.50;99.90;;;;;;4998205;28;20100;-50
2022/10/27 00:12:04;;;;;;;9.90;2.85;;;25.50;99.90;;;;;;5023370;28;20025;-51
2022/10/27 00:14:30;;;;;;;8.80;1.85;;;25.40;99.90;;;;;;5022757;28;20138;-51
2022/10/27 00:16:56;;;;;;;11.10;3.10;;;25.40;99.90;;;;;;5023239;28;20504;-51
2022/10/27 00:19:23;;;;;;;14.23;2.80;;;25.40;99.90;;;;;;5025394;28;20022;-51
2022/10/27 00:21:50;;;;;;;9.68;2.72;;;25.30;99.90;;;;;;5011008;28;20054;-53
2022/10/27 00:24:18;;;;;;;18.95;3.95;;;25.30;99.90;;;;;;5011396;28;20501;-48
2022/10/27 00:26:43;;;;;;;9.55;2.85;;;25.30;99.90;;;;;;5010277;28;20031;-50
2022/10/27 00:29:09;;;;;;;16.30;3.25;;;25.30;99.90;;;;;;5008751;28;20042;-56
2022/10/27 00:31:35;;;;;;;13.45;2.95;;;25.30;99.90;;;;;;5025678;28;20013;-56
2022/10/27 00:34:01;;;;;;;14.23;2.47;;;25.30;99.90;;;;;;5031686;28;20057;-54
2022/10/27 00:36:26;;;;;;;9.57;3.55;;;25.30;99.90;;;;;;5014375;28;20041;-51
2022/10/27 00:38:57;;;;;;;11.00;3.05;;;25.30;99.90;;;;;;5012387;28;20038;-49
2022/10/27 00:41:52;;;;;;;14.20;3.05;;;25.30;99.90;;;;;;5026404;28;20024;-50
2022/10/27 00:44:37;;;;;;;13.15;3.38;;;25.20;99.90;;;;;;5019423;28;20401;-48
2022/10/27 00:47:08;;;;;;;7.80;2.65;;;25.20;99.90;;;;;;5017633;28;20022;-51
2022/10/27 00:50:01;;;;;;;9.13;2.92;;;25.20;99.90;;;;;;5027231;28;20508;-50
2022/10/27 00:52:35;;;;;;;12.70;3.33;;;25.20;99.90;;;;;;5014597;28;20038;-48
2022/10/27 00:55:06;;;;;;;7.30;2.17;;;25.20;99.90;;;;;;5022110;28;20033;-49
2022/10/27 00:57:33;;;;;;;14.30;3.15;;;25.20;99.90;;;;;;5022250;28;20037;-49
2022/10/27 01:00:01;;;;;;;12.48;2.38;;;25.20;99.90;;;;;;5059578;23;20407;-44
2022/10/27 01:02:26;;;;;;;17.90;3.25;;;25.10;99.90;;;;;;5076262;28;20475;-45
2022/10/27 01:05:00;;;;;;;11.38;2.40;;;25.20;99.90;;;;;;5091591;28;20028;-45
2022/10/27 01:07:27;;;;;;;10.35;2.65;;;25.10;99.90;;;;;;5091732;28;20012;-57
2022/10/27 01:09:53;;;;;;;12.73;2.67;;;25.10;99.90;;;;;;5091292;28;20028;-45
2022/10/27 01:12:18;;;;;;;11.27;2.38;;;25.10;99.90;;;;;;5091721;28;20357;-45
2022/10/27 01:14:44;;;;;;;10.95;3.33;;;25.10;99.90;;;;;;5092328;28;20078;-48
2022/10/27 01:17:17;;;;;;;11.30;2.92;;;25.10;99.90;;;;;;5096072;28;20047;-48
2022/10/27 01:20:11;;;;;;;13.23;2.80;;;25.10;99.90;;;;;;5095903;28;20472;-45
2022/10/27 01:23:09;;;;;;;11.38;2.67;;;25.10;99.90;;;;;;5086398;28;20028;-46
2022/10/27 01:25:53;;;;;;;9.90;2.38;;;25.00;99.90;;;;;;5095974;28;20069;-49
2022/10/27 01:28:45;;;;;;;10.85;2.83;;;25.00;99.90;;;;;;5096096;28;20020;-49
2022/10/27 01:31:16;;;;;;;9.32;2.45;;;25.00;99.90;;;;;;5074306;28;20059;-45
2022/10/27 01:33:53;;;;;;;8.38;2.72;;;25.00;99.90;;;;;;5095210;28;20476;-50
2022/10/27 01:36:41;;;;;;;12.32;2.30;;;24.90;99.90;;;;;;5095983;28;20024;-54
2022/10/27 01:39:18;;;;;;;9.30;3.33;;;24.90;99.90;;;;;;5094757;28;20479;-49
2022/10/27 01:41:48;;;;;;;12.10;3.33;;;24.90;99.90;;;;;;5085031;28;20388;-50
2022/10/27 01:44:24;;;;;;;6.25;2.50;;;24.90;99.90;;;;;;5094586;28;20036;-50
2022/10/27 01:46:51;;;;;;;11.30;2.60;;;24.90;99.90;;;;;;5094459;28;20026;-47
2022/10/27 01:49:17;;;;;;;12.57;2.65;;;24.90;99.90;;;;;;5094962;28;20472;-48
2022/10/27 01:51:43;;;;;;;11.27;3.08;;;24.90;99.90;;;;;;5088184;28;20035;-54
2022/10/27 01:54:09;;;;;;;10.20;3.08;;;24.90;99.90;;;;;;5081973;28;20028;-48
2022/10/27 01:56:43;;;;;;;14.65;3.80;;;24.80;99.90;;;;;;5095726;28;20036;-48
2022/10/27 01:59:12;;;;;;;11.68;2.45;;;24.90;99.90;;;;;;5095897;28;20490;-49
2022/10/27 02:01:38;;;;;;;13.23;2.97;;;24.90;99.90;;;;;;5095199;28;20044;-50
2022/10/27 02:04:42;;;;;;;13.95;3.03;;;24.90;99.90;;;;;;5093368;28;20035;-49
2022/10/27 02:07:10;;;;;;;9.05;2.75;;;24.90;99.90;;;;;;5085596;28;20031;-49
2022/10/27 02:09:39;;;;;;;10.80;3.17;;;24.90;99.90;;;;;;5093626;28;20016;-49
2022/10/27 02:12:12;;;;;;;13.95;2.90;;;24.90;99.90;;;;;;5093523;28;20024;-50
2022/10/27 02:14:38;;;;;;;14.63;2.80;;;24.90;99.90;;;;;;5091845;28;20020;-49
2022/10/27 02:17:05;;;;;;;11.27;2.50;;;24.90;99.90;;;;;;5093288;28;20035;-49
2022/10/27 02:19:39;;;;;;;19.25;2.97;;;24.90;99.90;;;;;;5093341;28;20020;-49
2022/10/27 02:22:06;;;;;;;15.55;3.33;;;24.90;99.90;;;;;;5093057;28;20028;-51
2022/10/27 02:24:32;;;;;;;13.48;2.78;;;24.90;99.90;;;;;;5093171;28;20056;-49
2022/10/27 02:27:03;;;;;;;9.05;2.88;;;24.90;99.90;;;;;;5092361;28;20028;-50
2022/10/27 02:29:38;;;;;;;12.82;2.95;;;24.90;99.90;;;;;;5093355;28;20066;-50
2022/10/27 02:32:07;;;;;;;17.08;3.15;;;24.90;99.90;;;;;;5092090;28;20020;-49
2022/10/27 02:34:34;;;;;;;17.35;3.45;;;24.90;99.90;;;;;;5074014;28;20055;-50
2022/10/27 02:37:02;;;;;;;11.70;3.15;;;24.90;99.90;;;;;;5092607;28;20039;-50
2022/10/27 02:39:27;;;;;;;13.07;3.17;;;24.80;99.90;;;;;;5076948;28;20036;-49
2022/10/27 02:41:53;;;;;;;11.32;2.42;;;24.80;99.90;;;;;;5095266;28;20070;-49
2022/10/27 02:44:19;;;;;;;13.43;2.70;;;24.80;99.90;;;;;;5076927;28;20429;-49
2022/10/27 02:46:45;;;;;;;10.57;3.10;;;24.80;99.90;;;;;;5095228;28;20383;-50
2022/10/27 02:49:10;;;;;;;13.93;3.40;;;24.80;99.90;;;;;;5094943;28;20024;-49
2022/10/27 02:51:36;;;;;;;16.40;2.90;;;24.80;99.90;;;;;;5094905;28;20028;-50
2022/10/27 02:54:02;;;;;;;12.20;2.65;;;24.80;99.90;;;;;;5094979;28;20490;-50
2022/10/27 02:56:28;;;;;;;8.82;2.40;;;24.80;99.90;;;;;;5093533;28;20114;-49
2022/10/27 02:58:53;;;;;;;9.90;2.22;;;24.80;99.90;;;;;;5094788;28;20024;-49
2022/10/27 03:01:19;;;;;;;10.85;2.35;;;24.80;99.90;;;;;;5072432;22;20079;-50
2022/10/27 03:03:45;;;;;;;11.65;2.50;;;24.80;99.90;;;;;;5054483;28;20043;-50
2022/10/27 03:06:10;;;;;;;9.43;2.78;;;24.80;99.90;;;;;;5036809;28;20015;-49
2022/10/27 03:08:36;;;;;;;10.45;2.47;;;24.80;99.90;;;;;;5054500;28;20039;-50
2022/10/27 03:11:02;;;;;;;15.63;3.08;;;24.80;99.90;;;;;;5054270;28;20029;-51
2022/10/27 03:13:28;;;;;;;14.20;2.70;;;24.80;99.90;;;;;;5054279;28;20044;-50
2022/10/27 03:15:53;;;;;;;18.05;2.75;;;24.80;99.90;;;;;;5054183;28;20099;-50
2022/10/27 03:18:19;;;;;;;14.52;3.35;;;24.80;99.90;;;;;;5054054;28;20116;-50
2022/10/27 03:20:45;;;;;;;10.85;2.85;;;24.80;99.90;;;;;;5054059;28;20029;-50
2022/10/27 03:23:12;;;;;;;13.20;2.92;;;24.80;99.90;;;;;;5054116;28;20021;-50
2022/10/27 03:25:42;;;;;;;10.13;2.33;;;24.80;99.90;;;;;;5054104;28;20461;-49
2022/10/27 03:28:11;;;;;;;12.05;2.97;;;24.80;99.90;;;;;;5053889;28;20075;-49
2022/10/27 03:30:37;;;;;;;12.80;3.40;;;24.80;99.90;;;;;;5053972;28;20020;-49
2022/10/27 03:33:04;;;;;;;12.40;4.40;;;24.80;99.90;;;;;;5036012;28;20021;-49
2022/10/27 03:35:30;;;;;;;12.88;3.20;;;24.80;99.90;;;;;;5053957;28;20037;-50
2022/10/27 03:37:57;;;;;;;13.10;2.58;;;24.80;99.90;;;;;;5052928;28;20112;-50
2022/10/27 03:40:23;;;;;;;13.23;2.70;;;24.80;99.90;;;;;;5053846;28;20465;-50
2022/10/27 03:42:49;;;;;;;15.38;7.88;;;24.80;99.90;;;;;;5053854;28;20104;-50
2022/10/27 03:45:15;;;;;;;24.13;6.13;;;24.80;99.90;;;;;;5053623;28;20133;-49
2022/10/27 03:47:41;;;;;;;24.27;9.52;;;24.80;99.90;;;;;;5050563;28;20524;-50
2022/10/27 03:50:07;;;;;;;12.15;5.47;;;24.80;99.90;;;;;;5051078;28;20125;-49
2022/10/27 03:52:33;;;;;;;8.60;2.78;;;24.70;99.90;;;;;;5052530;28;20357;-50
2022/10/27 03:54:59;;;;;;;14.20;6.88;;;24.70;99.90;;;;;;5053400;28;20035;-50
2022/10/27 03:57:25;;;;;;;13.60;4.25;;;24.70;99.90;;;;;;5053303;28;20095;-49
2022/10/27 03:59:50;;;;;;;16.42;3.00;;;24.70;99.90;;;;;;5074625;22;20052;-60
2022/10/27 04:02:16;;;;;;;20.83;4.43;;;24.70;99.90;;;;;;5094056;28;20451;-60
2022/10/27 04:04:43;;;;;;;18.95;5.20;;;24.70;99.90;;;;;;5093713;28;20016;-62
2022/10/27 04:07:09;;;;;;;11.93;3.17;;;24.70;99.90;;;;;;5075227;28;20067;-62
2022/10/27 04:09:34;;;;;;;14.23;2.30;;;24.70;99.90;;;;;;5093581;28;20035;-62
2022/10/27 04:12:00;;;;;;;14.50;4.43;;;24.80;99.90;;;;;;5093470;28;20024;-63
2022/10/27 04:14:26;;;;;;;13.70;3.33;;;24.80;99.90;;;;;;5093447;28;20024;-62
2022/10/27 04:16:52;;;;;;;14.38;2.90;;;24.80;99.90;;;;;;5092368;28;20036;-61
2022/10/27 04:19:18;;;;;;;7.32;3.13;;;24.80;99.90;;;;;;5093410;28;20081;-61
2022/10/27 04:21:44;;;;;;;16.38;2.80;;;24.80;99.90;;;;;;5093432;28;20028;-61
2022/10/27 04:24:10;;;;;;;16.70;3.38;;;24.80;99.90;;;;;;5093327;28;20027;-61
2022/10/27 04:26:36;;;;;;;17.77;3.65;;;24.80;99.90;;;;;;5093441;28;20111;-60
2022/10/27 04:29:02;;;;;;;24.95;5.00;;;24.80;99.90;;;;;;5093338;28;20400;-61
2022/10/27 04:31:28;;;;;;;13.75;3.60;;;24.90;99.90;;;;;;5093340;28;20384;-60
2022/10/27 04:33:53;;;;;;;19.92;3.80;;;24.90;99.90;;;;;;5093252;28;20095;-61
2022/10/27 04:36:19;;;;;;;13.00;3.40;;;24.90;99.90;;;;;;5093114;28;20499;-60
2022/10/27 04:38:48;;;;;;;12.10;3.28;;;24.90;99.90;;;;;;5093340;28;20108;-61
2022/10/27 04:41:14;;;;;;;16.73;4.28;;;24.90;99.90;;;;;;5093254;28;20075;-60
2022/10/27 04:43:40;;;;;;;20.75;4.32;;;24.90;99.90;;;;;;5093104;28;20028;-60
2022/10/27 04:46:05;;;;;;;31.15;11.73;;;24.90;99.90;;;;;;5093176;28;20055;-60
2022/10/27 04:48:31;;;;;;;16.90;4.47;;;24.90;99.90;;;;;;5093084;28;20110;-61
2022/10/27 04:50:57;;;;;;;17.23;4.25;;;24.90;99.90;;;;;;5097235;28;20028;-61
2022/10/27 04:53:23;;;;;;;26.98;3.88;;;24.90;99.90;;;;;;5097370;28;20496;-61
2022/10/27 04:55:51;;;;;;;17.02;3.22;;;24.90;99.90;;;;;;5097259;28;20032;-60
2022/10/27 04:58:17;;;;;;;21.20;7.88;;;24.90;99.90;;;;;;5096870;28;20472;-60
2022/10/27 05:00:43;;;;;;;16.88;4.47;;;24.90;99.90;;;;;;5097113;28;20131;-60
2022/10/27 05:03:09;;;;;;;14.32;3.80;;;24.90;99.90;;;;;;5078822;28;20070;-60
2022/10/27 05:05:35;;;;;;;15.48;3.75;;;24.80;99.90;;;;;;5097767;28;20118;-60
2022/10/27 05:08:02;;;;;;;15.88;4.68;;;24.80;99.90;;;;;;5096962;28;20024;-60
2022/10/27 05:10:30;;;;;;;17.92;4.32;;;24.80;99.90;;;;;;5096902;28;20020;-61
2022/10/27 05:12:56;;;;;;;16.02;3.42;;;24.80;99.90;;;;;;5096687;28;20459;-61
2022/10/27 05:15:21;;;;;;;20.27;4.20;;;24.80;99.90;;;;;;5096784;28;20460;-61
2022/10/27 05:17:47;;;;;;;16.27;3.70;;;24.80;99.90;;;;;;5096523;28;20059;-62
2022/10/27 05:20:13;;;;;;;15.13;4.03;;;24.70;99.90;;;;;;5096576;28;20023;-61
2022/10/27 05:22:39;;;;;;;26.48;5.40;;;24.70;99.90;;;;;;5096730;28;20032;-61
2022/10/27 05:25:06;;;;;;;11.10;3.60;;;24.70;99.90;;;;;;5096491;28;20028;-61
2022/10/27 05:27:32;;;;;;;25.45;4.68;;;24.70;99.90;;;;;;5096657;28;20020;-61
2022/10/27 05:29:58;;;;;;;22.52;3.65;;;24.70;99.90;;;;;;5096561;28;20467;-62
2022/10/27 05:32:24;;;;;;;16.27;3.78;;;24.70;99.90;;;;;;5078227;28;20021;-61
2022/10/27 05:34:50;;;;;;;23.38;4.05;;;24.70;99.90;;;;;;5096411;28;20523;-60
2022/10/27 05:37:16;;;;;;;27.60;4.13;;;24.70;99.90;;;;;;5096340;28;20115;-60
2022/10/27 05:39:41;;;;;;;21.45;4.32;;;24.70;99.90;;;;;;5096485;28;20103;-60
2022/10/27 05:42:07;;;;;;;30.92;5.28;;;24.60;99.90;;;;;;5096384;28;20357;-61
2022/10/27 05:44:33;;;;;;;23.27;5.13;;;24.60;99.90;;;;;;5096230;28;20028;-60
2022/10/27 05:46:59;;;;;;;18.38;4.32;;;24.60;99.90;;;;;;5096203;28;20047;-61
2022/10/27 05:49:24;;;;;;;21.90;5.35;;;24.60;99.90;;;;;;5096173;28;20043;-60
2022/10/27 05:51:51;;;;;;;20.77;4.60;;;24.60;99.90;;;;;;5061361;28;20032;-61
2022/10/27 05:54:17;;;;;;;30.90;3.65;;;24.60;99.90;;;;;;5095887;28;20020;-61
2022/10/27 05:56:44;;;;;;;23.65;4.22;;;24.60;99.90;;;;;;5095903;28;20086;-60
2022/10/27 05:59:11;;;;;;;17.85;4.05;;;24.50;99.90;;;;;;5096051;28;20103;-62
2022/10/27 06:01:37;;;;;;;15.70;4.18;;;24.50;99.90;;;;;;5094937;28;20040;-62
2022/10/27 06:04:03;;;;;;;21.52;5.68;;;24.50;99.90;;;;;;5095674;28;20082;-62
2022/10/27 06:06:29;;;;;;;17.85;4.43;;;24.50;99.90;;;;;;5095740;28;20032;-61
2022/10/27 06:08:54;;;;;;;13.45;3.85;;;24.50;99.90;;;;;;5095584;28;20055;-61
2022/10/27 06:11:20;;;;;;;25.02;3.72;;;24.50;99.90;;;;;;5095681;28;20046;-62
2022/10/27 06:13:50;;;;;;;17.42;4.50;;;24.50;99.90;;;;;;5095634;28;20028;-61
2022/10/27 06:16:16;;;;;;;20.52;4.35;;;24.50;99.90;;;;;;5095436;28;20020;-61
2022/10/27 06:18:42;;;;;;;20.50;4.05;;;24.50;99.90;;;;;;5095636;28;20464;-61
2022/10/27 06:21:08;;;;;;;15.18;4.00;;;24.40;99.90;;;;;;5095445;28;20028;-61
2022/10/27 06:23:33;;;;;;;18.35;4.47;;;24.40;99.90;;;;;;5095227;28;20052;-60
2022/10/27 06:25:59;;;;;;;11.65;3.75;;;24.40;99.90;;;;;;5077210;28;20103;-61
2022/10/27 06:28:25;;;;;;;20.25;4.65;;;24.40;99.90;;;;;;5095434;28;20020;-61
2022/10/27 06:30:50;;;;;;;26.70;4.07;;;24.40;99.90;;;;;;5095344;28;20024;-61
2022/10/27 06:33:16;;;;;;;26.13;4.15;;;24.40;99.90;;;;;;5060385;28;20372;-61
2022/10/27 06:35:45;;;;;;;23.45;4.45;;;24.40;99.90;;;;;;5095184;28;20531;-61
2022/10/27 06:38:15;;;;;;;22.17;4.45;;;24.30;99.90;;;;;;5076856;28;20064;-60
2022/10/27 06:40:44;;;;;;;18.35;4.22;;;24.30;99.90;;;;;;5095174;28;20024;-61
2022/10/27 06:43:11;;;;;;;20.45;4.15;;;24.30;99.90;;;;;;5095051;28;20081;-58
2022/10/27 06:45:36;;;;;;;18.25;4.03;;;24.30;99.90;;;;;;5076860;28;20542;-61
2022/10/27 06:48:03;;;;;;;19.20;4.00;;;24.30;99.90;;;;;;5094969;28;20131;-60
2022/10/27 06:50:29;;;;;;;24.02;4.63;;;24.30;99.90;;;;;;5094897;28;20487;-62
2022/10/27 06:52:56;;;;;;;20.23;4.30;;;24.30;99.90;;;;;;5076650;28;20479;-61
2022/10/27 06:55:22;;;;;;;19.25;4.43;;;24.30;99.90;;;;;;5094829;28;20020;-61
2022/10/27 06:57:48;;;;;;;20.77;4.30;;;24.30;99.90;;;;;;5094321;28;20085;-61
2022/10/27 07:00:14;;;;;;;17.45;4.53;;;24.30;99.90;;;;;;5094331;28;20040;-60
2022/10/27 07:02:40;;;;;;;21.98;5.10;;;24.30;99.90;;;;;;5094793;28;20038;-61
2022/10/27 07:05:06;;;;;;;20.92;3.88;;;24.30;99.90;;;;;;5094455;28;20028;-60
2022/10/27 07:07:32;;;;;;;16.25;4.45;;;24.30;99.90;;;;;;5094407;28;20031;-60
2022/10/27 07:09:58;;;;;;;22.40;4.95;;;24.30;99.90;;;;;;5094491;28;20056;-60
2022/10/27 07:12:24;;;;;;;24.88;3.90;;;24.30;99.90;;;;;;5094461;28;20047;-60
2022/10/27 07:14:49;;;;;;;20.08;4.43;;;24.30;99.90;;;;;;5094486;28;20020;-62
2022/10/27 07:17:15;;;;;;;18.50;3.88;;;24.30;99.90;;;;;;5094212;28;20036;-61
2022/10/27 07:19:41;;;;;;;15.20;4.63;;;24.30;99.90;;;;;;5094353;28;20395;-61
2022/10/27 07:22:06;;;;;;;15.32;4.00;;;24.40;99.90;;;;;;5094111;28;20035;-61
2022/10/27 07:24:32;;;;;;;15.32;3.40;;;24.40;99.90;;;;;;5094149;28;20046;-61
2022/10/27 07:26:58;;;;;;;18.73;4.07;;;24.40;99.90;;;;;;5094172;28;20051;-61
2022/10/27 07:29:24;;;;;;;15.88;4.22;;;24.50;99.90;;;;;;5094331;28;20348;-61
2022/10/27 07:31:49;;;;;;;16.10;4.70;;;24.50;99.90;;;;;;5094200;28;20077;-61
2022/10/27 07:34:15;;;;;;;19.23;5.22;;;24.60;99.90;;;;;;5094135;28;20020;-61
2022/10/27 07:36:41;;;;;;;29.80;7.00;;;24.60;99.90;;;;;;5094078;28;20078;-61
2022/10/27 07:39:07;;;;;;;24.17;9.98;;;24.70;99.90;;;;;;5094032;28;20495;-61
2022/10/27 07:41:33;;;;;;;16.83;5.28;;;24.70;99.90;;;;;;5093852;28;20467;-61
2022/10/27 07:43:58;;;;;;;21.17;5.75;;;24.70;99.90;;;;;;5093972;28;20035;-61
2022/10/27 07:46:24;;;;;;;17.05;6.30;;;24.80;99.90;;;;;;5093674;28;20023;-61
2022/10/27 07:48:50;;;;;;;17.05;4.82;;;24.90;99.90;;;;;;5094021;28;20028;-61
2022/10/27 07:51:15;;;;;;;19.50;4.93;;;24.90;99.90;;;;;;5093851;28;20024;-61
2022/10/27 07:53:41;;;;;;;15.93;4.05;;;25.00;99.90;;;;;;5093702;28;20027;-61
2022/10/27 07:56:07;;;;;;;13.48;3.70;;;25.00;99.90;;;;;;5075749;28;20060;-61
2022/10/27 07:58:33;;;;;;;13.07;4.32;;;25.10;99.90;;;;;;5075358;28;20036;-62
2022/10/27 08:00:59;;;;;;;26.92;9.10;;;25.20;99.90;;;;;;5093271;28;20044;-61
2022/10/27 08:03:28;;;;;;;17.65;4.57;;;25.30;99.90;;;;;;5093732;28;20096;-61
2022/10/27 08:05:54;;;;;;;16.25;4.25;;;25.30;99.90;;;;;;5093600;28;20016;-61
2022/10/27 08:08:20;;;;;;;23.10;4.30;;;25.40;99.90;;;;;;5093449;28;20028;-61
2022/10/27 08:10:48;;;;;;;14.95;3.78;;;25.50;99.90;;;;;;5093483;28;20024;-60
2022/10/27 08:13:15;;;;;;;20.15;3.28;;;25.50;99.90;;;;;;5093357;28;20053;-60
2022/10/27 08:15:41;;;;;;;25.63;4.57;;;25.60;99.90;;;;;;5093263;28;20028;-60
2022/10/27 08:18:08;;;;;;;18.25;4.72;;;25.60;99.90;;;;;;5093080;28;20357;-59
2022/10/27 08:20:38;;;;;;;26.10;3.75;;;25.70;99.90;;;;;;5093241;28;20081;-59
2022/10/27 08:23:06;;;;;;;25.23;4.50;;;25.80;99.90;;;;;;5075387;28;20372;-60
2022/10/27 08:25:32;;;;;;;13.23;4.03;;;25.80;99.90;;;;;;5092668;28;20020;-60
2022/10/27 08:27:58;;;;;;;11.60;3.47;;;25.90;99.90;;;;;;5093256;28;20024;-60
2022/10/27 08:30:29;;;;;;;17.65;4.03;;;26.00;99.90;;;;;;5093190;28;20029;-60
2022/10/27 08:32:57;;;;;;;22.02;3.78;;;26.00;99.90;;;;;;5093329;28;20024;-61
2022/10/27 08:35:24;;;;;;;12.05;3.30;;;26.10;99.90;;;;;;5093275;28;20551;-61
2022/10/27 08:38:00;;;;;;;11.32;2.78;;;26.10;99.90;;;;;;5092997;28;20040;-61
2022/10/27 08:40:40;;;;;;;11.02;4.03;;;26.20;99.90;;;;;;5093136;28;20024;-60
2022/10/27 08:43:25;;;;;;;10.57;3.35;;;26.20;99.90;;;;;;5092863;28;20031;-61
2022/10/27 08:45:58;;;;;;;18.00;3.70;;;26.30;99.90;;;;;;5061296;28;20044;-61
2022/10/27 08:48:26;;;;;;;11.32;2.95;;;26.40;99.90;;;;;;5092924;28;20036;-60
2022/10/27 08:50:52;;;;;;;11.50;3.25;;;26.40;99.90;;;;;;5092984;28;20075;-60
2022/10/27 08:53:25;;;;;;;16.65;3.53;;;26.50;99.90;;;;;;5093123;28;20020;-60
2022/10/27 08:56:00;;;;;;;16.45;3.90;;;26.50;99.90;;;;;;5074807;28;20384;-61
2022/10/27 08:58:42;;;;;;;15.13;3.50;;;26.60;99.90;;;;;;5075589;28;20058;-61
2022/10/27 09:01:19;;;;;;;10.38;2.80;;;26.60;99.90;;;;;;5092791;28;20446;-61
2022/10/27 09:04:06;;;;;;;11.38;3.25;;;26.70;99.90;;;;;;5092913;28;20028;-62
2022/10/27 09:06:44;;;;;;;16.67;3.45;;;26.80;99.90;;;;;;5074714;28;20430;-61
2022/10/27 09:09:34;;;;;;;24.65;12.57;;;26.80;99.90;;;;;;5092723;28;20035;-62
2022/10/27 09:12:10;;;;;;;36.10;20.38;;;26.90;99.90;;;;;;5092967;28;20455;-62
2022/10/27 09:14:58;;;;;;;18.60;4.93;;;26.90;99.90;;;;;;5092963;28;20109;-63
2022/10/27 09:17:55;;;;;;;28.73;4.32;;;27.00;99.90;;;;;;5092871;28;20551;-62
2022/10/27 09:20:42;;;;;;;14.13;3.90;;;27.10;99.90;;;;;;5092895;28;20127;-62
2022/10/27 09:23:31;;;;;;;;;;;27.20;99.90;;;;;;5093309;28;20047;-62
2022/10/27 09:25:58;;;;;;;15.90;3.33;;;27.20;99.90;;;;;;5084292;28;20372;-62
2022/10/27 09:28:30;;;;;;;14.27;3.75;;;27.20;99.90;;;;;;5057917;28;20024;-62
2022/10/27 09:30:56;;;;;;;22.17;3.97;;;27.30;99.90;;;;;;5092743;28;20020;-64
2022/10/27 09:33:28;;;;;;;15.30;3.40;;;27.40;99.90;;;;;;5092473;28;20380;-62
2022/10/27 09:35:55;;;;;;;14.85;3.88;;;27.40;99.90;;;;;;5093164;28;20103;-62
2022/10/27 09:38:26;;;;;;;21.02;3.72;;;27.40;99.90;;;;;;5096079;28;20391;-61
2022/10/27 09:40:53;;;;;;;15.40;3.25;;;27.50;99.90;;;;;;5096189;28;20020;-61
2022/10/27 09:43:21;;;;;;;16.42;3.35;;;27.50;99.90;;;;;;5096265;28;20021;-61
2022/10/27 09:45:54;;;;;;;13.02;3.47;;;27.60;99.90;;;;;;5096085;28;20063;-61
2022/10/27 09:48:24;;;;;;;11.82;3.53;;;27.70;99.90;;;;;;5096095;28;20073;-62
2022/10/27 09:50:58;;;;;;;24.05;3.70;;;27.70;99.90;;;;;;5078572;28;20035;-61
2022/10/27 09:53:41;;;;;;;13.77;3.50;;;27.70;99.90;;;;;;5095933;28;20051;-61
2022/10/27 09:56:13;;;;;;;17.58;3.35;;;27.80;99.90;;;;;;5095981;28;20020;-62
2022/10/27 09:58:42;;;;;;;13.00;3.10;;;27.90;99.90;;;;;;5095748;28;20051;-62
2022/10/27 10:01:10;;;;;;;15.57;4.57;;;27.90;99.90;;;;;;5095770;28;20071;-60
2022/10/27 10:03:37;;;;;;;11.93;2.85;;;28.00;99.90;;;;;;5095685;28;20503;-61
2022/10/27 10:06:20;;;;;;;15.27;3.50;;;28.00;99.90;;;;;;5095797;28;20035;-63
2022/10/27 10:08:46;;;;;;;15.27;4.32;;;28.10;99.90;;;;;;5094424;28;20024;-62
2022/10/27 10:11:22;;;;;;;11.13;3.45;;;28.10;99.90;;;;;;5095464;28;20034;-62
2022/10/27 10:14:01;;;;;;;8.93;2.92;;;28.20;99.90;;;;;;5095571;28;20059;-61
2022/10/27 10:16:28;;;;;;;20.65;3.67;;;28.20;99.90;;;;;;5095439;28;20024;-62
2022/10/27 10:19:19;;;;;;;19.00;3.08;;;28.20;99.90;;;;;;5077642;28;20488;-63
2022/10/27 10:21:59;;;;;;;17.27;4.05;;;28.30;99.90;;;;;;5095530;28;20025;-63
2022/10/27 10:24:35;;;;;;;14.18;3.97;;;28.30;99.90;;;;;;5093591;28;20035;-63
2022/10/27 10:27:04;;;;;;;15.27;3.55;;;28.40;99.90;;;;;;5075107;28;20028;-64
2022/10/27 10:29:46;;;;;;;16.55;3.95;;;28.50;99.90;;;;;;5088228;28;20023;-66
2022/10/27 10:32:46;;;;;;;16.77;3.40;;;28.50;99.90;;;;;;5085750;28;20057;-65
2022/10/27 10:35:50;;;;;;;50.35;11.73;;;28.60;99.90;;;;;;5084363;28;20024;-63
2022/10/27 10:38:22;;;;;;;13.60;3.85;;;28.70;99.90;;;;;;5085444;28;20032;-64
2022/10/27 10:41:11;;;;;;;15.40;3.65;;;28.80;99.90;;;;;;5091349;28;20499;-64
2022/10/27 10:43:37;;;;;;;13.88;4.68;;;28.80;99.90;;;;;;5085543;28;20035;-62
2022/10/27 10:46:04;;;;;;;17.80;3.47;;;28.90;99.90;;;;;;5078026;28;20029;-62
2022/10/27 10:48:39;;;;;;;13.93;3.67;;;28.90;99.90;;;;;;5074586;28;20312;-62
2022/10/27 10:51:06;;;;;;;19.58;3.28;;;29.00;99.90;;;;;;5090294;28;20059;-62
2022/10/27 10:53:41;;;;;;;17.05;4.78;;;29.10;99.90;;;;;;5092554;28;20571;-62
2022/10/27 10:56:37;;;;;;;13.63;3.00;;;29.10;99.90;;;;;;5092574;28;20016;-62
2022/10/27 10:59:08;;;;;;;19.33;7.05;;;29.20;99.90;;;;;;5071238;28;20048;-62
2022/10/27 11:02:10;;;;;;;23.35;6.03;;;29.20;99.90;;;;;;5092419;28;20040;-63
2022/10/27 11:04:46;;;;;;;14.20;3.33;;;29.20;99.90;;;;;;5092340;28;20024;-63
2022/10/27 11:07:18;;;;;;;20.48;4.60;;;29.20;99.90;;;;;;5092345;28;20051;-63
2022/10/27 11:09:53;;;;;;;25.92;6.78;;;29.20;99.90;;;;;;5092248;28;20069;-63
2022/10/27 11:12:27;;;;;;;17.98;3.80;;;29.20;99.90;;;;;;5074524;28;20064;-63
2022/10/27 11:14:54;;;;;;;13.57;3.50;;;29.20;99.90;;;;;;5092444;28;20024;-63
2022/10/27 11:17:23;;;;;;;15.82;4.20;;;29.20;99.90;;;;;;5093159;28;20067;-63
2022/10/27 11:19:51;;;;;;;18.25;4.70;;;29.30;99.90;;;;;;5094241;28;20111;-63
2022/10/27 11:22:19;;;;;;;14.68;3.70;;;29.30;99.90;;;;;;5094135;28;20024;-64
2022/10/27 11:25:05;;;;;;;13.07;3.63;;;29.40;99.90;;;;;;5094267;28;20024;-62
2022/10/27 11:28:05;;;;;;;19.88;4.55;;;29.40;99.90;;;;;;5094256;28;20024;-63
2022/10/27 11:30:38;;;;;;;18.02;6.13;;;29.50;99.90;;;;;;5055216;28;20039;-62
2022/10/27 11:33:13;;;;;;;15.30;4.50;;;29.50;99.90;;;;;;5093989;28;20475;-62
2022/10/27 11:36:03;;;;;;;23.80;3.75;;;29.60;99.90;;;;;;5093935;28;20481;-63
2022/10/27 11:38:32;;;;;;;18.92;4.10;;;29.70;99.90;;;;;;5093977;28;20557;-63
2022/10/27 11:41:09;;;;;;;10.45;3.33;;;29.70;99.90;;;;;;5094101;28;20024;-61
2022/10/27 11:43:55;;;;;;;16.50;3.40;;;29.80;99.90;;;;;;5093606;28;20036;-61
2022/10/27 11:46:35;;;;;;;16.33;3.60;;;29.90;99.90;;;;;;5093585;28;20042;-61
2022/10/27 11:49:21;;;;;;;17.67;5.53;;;30.00;99.90;;;;;;5093596;28;20032;-61
2022/10/27 11:52:05;;;;;;;21.17;5.03;;;30.10;99.90;;;;;;5093226;28;20032;-62
2022/10/27 11:54:31;;;;;;;15.65;5.72;;;30.10;99.90;;;;;;5093736;28;20059;-64
2022/10/27 11:57:14;;;;;;;16.08;4.45;;;30.20;99.90;;;;;;5075460;28;20484;-64
2022/10/27 12:00:14;;;;;;;27.95;8.20;;;30.20;99.90;;;;;;5092746;28;20410;-63
2022/10/27 12:02:42;;;;;;;16.92;4.38;;;30.30;99.90;;;;;;5075501;28;20089;-63
2022/10/27 12:05:13;;;;;;;25.10;9.02;;;30.40;99.90;;;;;;5093593;28;20024;-61
2022/10/27 12:08:07;;;;;;;20.40;8.27;;;30.50;99.90;;;;;;5093579;28;20028;-63
2022/10/27 12:10:42;;;;;;;15.80;5.00;;;30.50;99.90;;;;;;5093317;28;20047;-60
2022/10/27 12:13:34;;;;;;;19.73;7.43;;;30.60;99.90;;;;;;5092267;28;20043;-60
2022/10/27 12:16:09;;;;;;;20.00;7.45;;;30.60;99.90;;;;;;5065532;28;20032;-61
2022/10/27 12:19:00;;;;;;;14.45;6.65;;;30.60;99.90;;;;;;5093514;28;20039;-61
2022/10/27 12:21:41;;;;;;;24.27;11.95;;;30.70;99.90;;;;;;5085158;28;20058;-61
2022/10/27 12:24:17;;;;;;;22.20;12.10;;;30.70;99.90;;;;;;5085685;28;20110;-60
2022/10/27 12:26:54;;;;;;;18.33;6.85;;;30.80;99.90;;;;;;5089708;28;20429;-59
2022/10/27 12:29:25;;;;;;;20.50;6.90;;;30.70;99.90;;;;;;5090874;28;20185;-59
2022/10/27 12:31:59;;;;;;;25.13;7.95;;;30.70;99.90;;;;;;5091943;28;20024;-59
2022/10/27 12:34:32;;;;;;;25.52;11.68;;;30.70;99.90;;;;;;5092344;28;20028;-63
2022/10/27 12:37:08;;;;;;;20.20;7.90;;;30.80;99.90;;;;;;5092927;28;20031;-60
2022/10/27 12:39:45;;;;;;;15.60;5.72;;;30.80;99.90;;;;;;5093027;28;20032;-60
2022/10/27 12:42:11;;;;;;;12.32;5.72;;;30.80;99.90;;;;;;5093083;28;20073;-60
2022/10/27 12:45:10;;;;;;;14.55;5.38;;;30.80;99.90;;;;;;5091254;28;20028;-61
2022/10/27 12:48:10;;;;;;;15.93;5.18;;;30.90;99.90;;;;;;5090837;28;20072;-61
2022/10/27 12:51:04;;;;;;;12.15;4.40;;;30.90;99.90;;;;;;5090909;28;20055;-59
2022/10/27 12:53:38;;;;;;;19.05;6.93;;;30.90;99.90;;;;;;5091010;28;20032;-61
2022/10/27 12:56:49;;;;;;;21.30;5.82;;;30.90;99.90;;;;;;5090828;28;20016;-60
2022/10/27 12:59:24;;;;;;;13.07;4.65;;;30.90;99.90;;;;;;5088847;28;20523;-62